sensor_id;sensor_type;location;lat;lon;timestamp;P1;durP1;ratioP1;P2;durP2;ratioP2
49784;SDS011;35679;38.732;-121.358;2022-12-22T00:02:23;10.80;;;6.63;;
49784;SDS011;35679;38.732;-121.358;2022-12-22T00:05:32;10.20;;;6.75;;
49784;SDS011;35679;38.732;-121.358;2022-12-22T00:08:39;8.23;;;7.18;;
49784;SDS011;35679;38.732;-121.358;2022-12-22T00:11:52;10.18;;;6.38;;
49784;SDS011;35679;38.732;-121.358;2022-12-22T00:14:59;11.48;;;6.53;;
49784;SDS011;35679;38.732;-121.358;2022-12-22T00:18:14;12.45;;;7.72;;
49784;SDS011;35679;38.732;-121.358;2022-12-22T00:24:37;10.38;;;6.50;;
49784;SDS011;35679;38.732;-121.358;2022-12-22T00:27:45;10.15;;;7.32;;
49784;SDS011;35679;38.732;-121.358;2022-12-22T00:30:53;10.80;;;7.30;;
49784;SDS011;35679;38.732;-121.358;2022-12-22T00:34:00;8.73;;;6.55;;
49784;SDS011;35679;38.732;-121.358;2022-12-22T00:37:11;11.73;;;7.88;;
49784;SDS011;35679;38.732;-121.358;2022-12-22T00:40:20;11.43;;;7.65;;
49784;SDS011;35679;38.732;-121.358;2022-12-22T00:46:41;13.82;;;6.97;;
49784;SDS011;35679;38.732;-121.358;2022-12-22T00:49:51;9.43;;;6.97;;
49784;SDS011;35679;38.732;-121.358;2022-12-22T00:52:59;11.45;;;7.70;;
49784;SDS011;35679;38.732;-121.358;2022-12-22T00:56:07;10.73;;;7.20;;
49784;SDS011;35679;38.732;-121.358;2022-12-22T00:59:16;11.20;;;7.25;;
49784;SDS011;35679;38.732;-121.358;2022-12-22T01:02:23;8.90;;;7.50;;
49784;SDS011;35679;38.732;-121.358;2022-12-22T01:05:31;10.77;;;7.60;;
49784;SDS011;35679;38.732;-121.358;2022-12-22T01:08:39;10.82;;;7.82;;
49784;SDS011;35679;38.732;-121.358;2022-12-22T01:11:47;11.00;;;7.85;;
49784;SDS011;35679;38.732;-121.358;2022-12-22T01:14:54;10.95;;;7.32;;
49784;SDS011;35679;38.732;-121.358;2022-12-22T01:18:02;11.07;;;7.78;;
49784;SDS011;35679;38.732;-121.358;2022-12-22T01:21:10;10.35;;;7.30;;
49784;SDS011;35679;38.732;-121.358;2022-12-22T01:24:18;12.93;;;7.93;;
49784;SDS011;35679;38.732;-121.358;2022-12-22T01:27:26;11.73;;;7.22;;
49784;SDS011;35679;38.732;-121.358;2022-12-22T01:30:38;9.70;;;7.47;;
49784;SDS011;35679;38.732;-121.358;2022-12-22T01:33:45;13.82;;;7.38;;
49784;SDS011;35679;38.732;-121.358;2022-12-22T01:36:53;11.32;;;7.40;;
49784;SDS011;35679;38.732;-121.358;2022-12-22T01:40:00;11.73;;;8.27;;
49784;SDS011;35679;38.732;-121.358;2022-12-22T01:43:20;10.82;;;7.18;;
49784;SDS011;35679;38.732;-121.358;2022-12-22T01:46:44;9.95;;;8.07;;
49784;SDS011;35679;38.732;-121.358;2022-12-22T01:49:53;12.73;;;7.75;;
49784;SDS011;35679;38.732;-121.358;2022-12-22T01:53:03;11.00;;;7.60;;
49784;SDS011;35679;38.732;-121.358;2022-12-22T01:56:15;12.32;;;8.05;;
49784;SDS011;35679;38.732;-121.358;2022-12-22T01:59:24;10.65;;;7.70;;
49784;SDS011;35679;38.732;-121.358;2022-12-22T02:02:33;12.23;;;8.00;;
49784;SDS011;35679;38.732;-121.358;2022-12-22T02:05:45;12.07;;;7.75;;
49784;SDS011;35679;38.732;-121.358;2022-12-22T02:12:37;11.15;;;7.97;;
49784;SDS011;35679;38.732;-121.358;2022-12-22T02:16:04;11.35;;;7.45;;
49784;SDS011;35679;38.732;-121.358;2022-12-22T02:23:06;10.10;;;7.05;;
49784;SDS011;35679;38.732;-121.358;2022-12-22T02:26:35;11.10;;;7.55;;
49784;SDS011;35679;38.732;-121.358;2022-12-22T02:30:00;9.90;;;7.32;;
49784;SDS011;35679;38.732;-121.358;2022-12-22T02:33:15;10.02;;;7.72;;
49784;SDS011;35679;38.732;-121.358;2022-12-22T02:36:30;12.63;;;8.00;;
49784;SDS011;35679;38.732;-121.358;2022-12-22T02:40:24;10.32;;;6.68;;
49784;SDS011;35679;38.732;-121.358;2022-12-22T02:43:43;11.35;;;7.80;;
49784;SDS011;35679;38.732;-121.358;2022-12-22T02:46:58;13.70;;;8.10;;
49784;SDS011;35679;38.732;-121.358;2022-12-22T02:50:16;10.40;;;7.47;;
49784;SDS011;35679;38.732;-121.358;2022-12-22T02:53:33;10.35;;;7.38;;
49784;SDS011;35679;38.732;-121.358;2022-12-22T02:56:41;10.32;;;7.65;;
49784;SDS011;35679;38.732;-121.358;2022-12-22T02:59:49;12.00;;;7.78;;
49784;SDS011;35679;38.732;-121.358;2022-12-22T03:02:56;13.40;;;7.47;;
49784;SDS011;35679;38.732;-121.358;2022-12-22T03:06:05;11.80;;;8.13;;
49784;SDS011;35679;38.732;-121.358;2022-12-22T03:09:15;12.52;;;8.23;;
49784;SDS011;35679;38.732;-121.358;2022-12-22T03:12:22;13.43;;;8.02;;
49784;SDS011;35679;38.732;-121.358;2022-12-22T03:15:30;10.38;;;7.13;;
49784;SDS011;35679;38.732;-121.358;2022-12-22T03:18:38;13.32;;;8.18;;
49784;SDS011;35679;38.732;-121.358;2022-12-22T03:21:45;14.02;;;8.30;;
49784;SDS011;35679;38.732;-121.358;2022-12-22T03:24:53;13.27;;;7.72;;
49784;SDS011;35679;38.732;-121.358;2022-12-22T03:28:04;10.50;;;8.20;;
49784;SDS011;35679;38.732;-121.358;2022-12-22T03:33:45;11.85;;;7.80;;
49784;SDS011;35679;38.732;-121.358;2022-12-22T03:36:35;11.23;;;7.60;;
49784;SDS011;35679;38.732;-121.358;2022-12-22T03:39:24;14.00;;;8.77;;
49784;SDS011;35679;38.732;-121.358;2022-12-22T03:42:13;14.98;;;8.82;;
49784;SDS011;35679;38.732;-121.358;2022-12-22T03:45:21;13.90;;;8.40;;
49784;SDS011;35679;38.732;-121.358;2022-12-22T03:48:28;12.90;;;8.50;;
49784;SDS011;35679;38.732;-121.358;2022-12-22T03:51:18;12.73;;;8.80;;
49784;SDS011;35679;38.732;-121.358;2022-12-22T03:54:07;12.32;;;8.23;;
49784;SDS011;35679;38.732;-121.358;2022-12-22T03:56:58;15.55;;;8.63;;
49784;SDS011;35679;38.732;-121.358;2022-12-22T03:59:49;16.98;;;9.63;;
49784;SDS011;35679;38.732;-121.358;2022-12-22T04:02:39;13.45;;;8.40;;
49784;SDS011;35679;38.732;-121.358;2022-12-22T04:05:28;15.00;;;8.38;;
49784;SDS011;35679;38.732;-121.358;2022-12-22T04:08:17;13.70;;;8.48;;
49784;SDS011;35679;38.732;-121.358;2022-12-22T04:11:12;16.48;;;9.27;;
49784;SDS011;35679;38.732;-121.358;2022-12-22T04:14:20;13.50;;;8.68;;
49784;SDS011;35679;38.732;-121.358;2022-12-22T04:17:20;15.00;;;8.70;;
49784;SDS011;35679;38.732;-121.358;2022-12-22T04:20:09;14.02;;;9.07;;
49784;SDS011;35679;38.732;-121.358;2022-12-22T04:22:59;16.23;;;9.20;;
49784;SDS011;35679;38.732;-121.358;2022-12-22T04:25:48;13.00;;;8.30;;
49784;SDS011;35679;38.732;-121.358;2022-12-22T04:28:37;17.17;;;9.00;;
49784;SDS011;35679;38.732;-121.358;2022-12-22T04:31:26;13.63;;;8.43;;
49784;SDS011;35679;38.732;-121.358;2022-12-22T04:34:16;17.05;;;9.23;;
49784;SDS011;35679;38.732;-121.358;2022-12-22T04:37:05;16.77;;;9.65;;
49784;SDS011;35679;38.732;-121.358;2022-12-22T04:40:03;15.23;;;8.80;;
49784;SDS011;35679;38.732;-121.358;2022-12-22T04:42:53;14.57;;;8.52;;
49784;SDS011;35679;38.732;-121.358;2022-12-22T04:45:42;12.20;;;8.80;;
49784;SDS011;35679;38.732;-121.358;2022-12-22T04:48:32;18.08;;;9.88;;
49784;SDS011;35679;38.732;-121.358;2022-12-22T04:51:22;14.15;;;8.65;;
49784;SDS011;35679;38.732;-121.358;2022-12-22T04:54:13;14.20;;;8.60;;
49784;SDS011;35679;38.732;-121.358;2022-12-22T04:57:02;14.05;;;8.95;;
49784;SDS011;35679;38.732;-121.358;2022-12-22T04:59:51;18.23;;;9.60;;
49784;SDS011;35679;38.732;-121.358;2022-12-22T05:02:42;13.15;;;8.13;;
49784;SDS011;35679;38.732;-121.358;2022-12-22T05:05:32;14.43;;;8.40;;
49784;SDS011;35679;38.732;-121.358;2022-12-22T05:08:22;14.68;;;8.25;;
49784;SDS011;35679;38.732;-121.358;2022-12-22T05:11:11;14.80;;;9.40;;
49784;SDS011;35679;38.732;-121.358;2022-12-22T05:14:00;16.27;;;9.02;;
49784;SDS011;35679;38.732;-121.358;2022-12-22T05:16:53;17.52;;;9.43;;
49784;SDS011;35679;38.732;-121.358;2022-12-22T05:19:43;16.83;;;9.20;;
49784;SDS011;35679;38.732;-121.358;2022-12-22T05:22:32;12.15;;;7.85;;
49784;SDS011;35679;38.732;-121.358;2022-12-22T05:25:22;13.55;;;8.93;;
49784;SDS011;35679;38.732;-121.358;2022-12-22T05:28:17;15.40;;;8.38;;
49784;SDS011;35679;38.732;-121.358;2022-12-22T05:31:07;15.00;;;8.43;;
49784;SDS011;35679;38.732;-121.358;2022-12-22T05:34:04;16.95;;;9.07;;
49784;SDS011;35679;38.732;-121.358;2022-12-22T05:36:54;12.63;;;8.52;;
49784;SDS011;35679;38.732;-121.358;2022-12-22T05:39:43;13.73;;;8.45;;
49784;SDS011;35679;38.732;-121.358;2022-12-22T05:42:32;17.75;;;9.48;;
49784;SDS011;35679;38.732;-121.358;2022-12-22T05:45:24;16.08;;;9.70;;
49784;SDS011;35679;38.732;-121.358;2022-12-22T05:48:14;13.57;;;8.77;;
49784;SDS011;35679;38.732;-121.358;2022-12-22T05:51:12;13.57;;;8.80;;
49784;SDS011;35679;38.732;-121.358;2022-12-22T05:54:01;15.50;;;8.70;;
49784;SDS011;35679;38.732;-121.358;2022-12-22T05:56:50;13.38;;;8.63;;
49784;SDS011;35679;38.732;-121.358;2022-12-22T05:59:40;13.50;;;8.55;;
49784;SDS011;35679;38.732;-121.358;2022-12-22T06:02:29;15.35;;;9.32;;
49784;SDS011;35679;38.732;-121.358;2022-12-22T06:05:18;13.20;;;8.65;;
49784;SDS011;35679;38.732;-121.358;2022-12-22T06:08:09;16.52;;;8.68;;
49784;SDS011;35679;38.732;-121.358;2022-12-22T06:10:58;14.20;;;8.43;;
49784;SDS011;35679;38.732;-121.358;2022-12-22T06:13:47;14.77;;;8.75;;
49784;SDS011;35679;38.732;-121.358;2022-12-22T06:16:37;15.40;;;9.68;;
49784;SDS011;35679;38.732;-121.358;2022-12-22T06:19:26;14.75;;;9.48;;
49784;SDS011;35679;38.732;-121.358;2022-12-22T06:22:15;14.10;;;8.60;;
49784;SDS011;35679;38.732;-121.358;2022-12-22T06:25:06;13.45;;;8.38;;
49784;SDS011;35679;38.732;-121.358;2022-12-22T06:28:04;13.98;;;8.75;;
49784;SDS011;35679;38.732;-121.358;2022-12-22T06:30:53;14.25;;;8.50;;
49784;SDS011;35679;38.732;-121.358;2022-12-22T06:33:43;13.13;;;8.23;;
49784;SDS011;35679;38.732;-121.358;2022-12-22T06:36:32;14.82;;;8.55;;
49784;SDS011;35679;38.732;-121.358;2022-12-22T06:39:21;14.27;;;8.60;;
49784;SDS011;35679;38.732;-121.358;2022-12-22T06:42:11;13.50;;;8.00;;
49784;SDS011;35679;38.732;-121.358;2022-12-22T06:45:18;13.27;;;8.15;;
49784;SDS011;35679;38.732;-121.358;2022-12-22T06:48:10;14.05;;;9.15;;
49784;SDS011;35679;38.732;-121.358;2022-12-22T06:51:00;13.38;;;8.18;;
49784;SDS011;35679;38.732;-121.358;2022-12-22T06:53:49;13.60;;;9.07;;
49784;SDS011;35679;38.732;-121.358;2022-12-22T06:56:38;12.10;;;8.30;;
49784;SDS011;35679;38.732;-121.358;2022-12-22T06:59:28;14.93;;;8.65;;
49784;SDS011;35679;38.732;-121.358;2022-12-22T07:02:17;13.93;;;8.45;;
49784;SDS011;35679;38.732;-121.358;2022-12-22T07:05:06;13.90;;;8.48;;
49784;SDS011;35679;38.732;-121.358;2022-12-22T07:07:56;15.35;;;9.43;;
49784;SDS011;35679;38.732;-121.358;2022-12-22T07:10:54;12.68;;;7.70;;
49784;SDS011;35679;38.732;-121.358;2022-12-22T07:13:46;14.15;;;7.80;;
49784;SDS011;35679;38.732;-121.358;2022-12-22T07:16:35;13.05;;;8.38;;
49784;SDS011;35679;38.732;-121.358;2022-12-22T07:19:24;15.43;;;8.50;;
49784;SDS011;35679;38.732;-121.358;2022-12-22T07:22:14;14.43;;;8.65;;
49784;SDS011;35679;38.732;-121.358;2022-12-22T07:25:03;13.57;;;8.27;;
49784;SDS011;35679;38.732;-121.358;2022-12-22T07:27:52;12.63;;;7.90;;
49784;SDS011;35679;38.732;-121.358;2022-12-22T07:30:41;17.13;;;8.98;;
49784;SDS011;35679;38.732;-121.358;2022-12-22T07:33:31;14.20;;;7.88;;
49784;SDS011;35679;38.732;-121.358;2022-12-22T07:36:20;15.10;;;7.75;;
49784;SDS011;35679;38.732;-121.358;2022-12-22T07:39:10;11.60;;;8.25;;
49784;SDS011;35679;38.732;-121.358;2022-12-22T07:42:00;11.85;;;7.65;;
49784;SDS011;35679;38.732;-121.358;2022-12-22T07:45:07;13.38;;;8.43;;
49784;SDS011;35679;38.732;-121.358;2022-12-22T07:47:57;13.07;;;8.05;;
49784;SDS011;35679;38.732;-121.358;2022-12-22T07:50:47;11.10;;;8.02;;
49784;SDS011;35679;38.732;-121.358;2022-12-22T07:53:38;14.77;;;8.30;;
49784;SDS011;35679;38.732;-121.358;2022-12-22T07:56:27;16.17;;;9.23;;
49784;SDS011;35679;38.732;-121.358;2022-12-22T07:59:17;14.98;;;9.50;;
49784;SDS011;35679;38.732;-121.358;2022-12-22T08:02:09;14.88;;;8.15;;
49784;SDS011;35679;38.732;-121.358;2022-12-22T08:04:59;16.67;;;8.40;;
49784;SDS011;35679;38.732;-121.358;2022-12-22T08:07:49;17.58;;;8.88;;
49784;SDS011;35679;38.732;-121.358;2022-12-22T08:10:39;13.30;;;8.68;;
49784;SDS011;35679;38.732;-121.358;2022-12-22T08:13:28;13.90;;;8.38;;
49784;SDS011;35679;38.732;-121.358;2022-12-22T08:16:18;14.10;;;8.68;;
49784;SDS011;35679;38.732;-121.358;2022-12-22T08:19:08;12.55;;;8.30;;
49784;SDS011;35679;38.732;-121.358;2022-12-22T08:21:57;14.38;;;7.80;;
49784;SDS011;35679;38.732;-121.358;2022-12-22T08:24:52;12.55;;;8.55;;
49784;SDS011;35679;38.732;-121.358;2022-12-22T08:27:42;14.88;;;8.45;;
49784;SDS011;35679;38.732;-121.358;2022-12-22T08:30:35;13.70;;;8.05;;
49784;SDS011;35679;38.732;-121.358;2022-12-22T08:33:25;16.70;;;8.73;;
49784;SDS011;35679;38.732;-121.358;2022-12-22T08:36:14;13.30;;;8.40;;
49784;SDS011;35679;38.732;-121.358;2022-12-22T08:39:04;17.17;;;8.55;;
49784;SDS011;35679;38.732;-121.358;2022-12-22T08:41:54;16.10;;;8.30;;
49784;SDS011;35679;38.732;-121.358;2022-12-22T08:44:43;15.70;;;9.18;;
49784;SDS011;35679;38.732;-121.358;2022-12-22T08:47:34;17.00;;;8.93;;
49784;SDS011;35679;38.732;-121.358;2022-12-22T08:50:24;15.65;;;9.10;;
49784;SDS011;35679;38.732;-121.358;2022-12-22T08:53:13;13.40;;;8.40;;
49784;SDS011;35679;38.732;-121.358;2022-12-22T08:56:22;18.58;;;9.63;;
49784;SDS011;35679;38.732;-121.358;2022-12-22T08:59:11;15.55;;;9.05;;
49784;SDS011;35679;38.732;-121.358;2022-12-22T09:02:01;14.57;;;8.98;;
49784;SDS011;35679;38.732;-121.358;2022-12-22T09:04:52;14.18;;;8.30;;
49784;SDS011;35679;38.732;-121.358;2022-12-22T09:07:41;15.95;;;8.88;;
49784;SDS011;35679;38.732;-121.358;2022-12-22T09:10:31;17.05;;;9.45;;
49784;SDS011;35679;38.732;-121.358;2022-12-22T09:13:21;15.93;;;9.52;;
49784;SDS011;35679;38.732;-121.358;2022-12-22T09:16:10;16.23;;;9.05;;
49784;SDS011;35679;38.732;-121.358;2022-12-22T09:18:59;16.25;;;9.63;;
49784;SDS011;35679;38.732;-121.358;2022-12-22T09:21:49;14.82;;;8.45;;
49784;SDS011;35679;38.732;-121.358;2022-12-22T09:24:38;15.73;;;9.73;;
49784;SDS011;35679;38.732;-121.358;2022-12-22T09:27:28;12.82;;;8.85;;
49784;SDS011;35679;38.732;-121.358;2022-12-22T09:30:18;15.52;;;9.20;;
49784;SDS011;35679;38.732;-121.358;2022-12-22T09:33:07;15.63;;;9.63;;
49784;SDS011;35679;38.732;-121.358;2022-12-22T09:35:57;16.05;;;9.25;;
49784;SDS011;35679;38.732;-121.358;2022-12-22T09:38:55;15.82;;;9.35;;
49784;SDS011;35679;38.732;-121.358;2022-12-22T09:41:45;15.43;;;9.30;;
49784;SDS011;35679;38.732;-121.358;2022-12-22T09:44:39;18.75;;;8.73;;
49784;SDS011;35679;38.732;-121.358;2022-12-22T09:47:33;15.65;;;8.40;;
49784;SDS011;35679;38.732;-121.358;2022-12-22T09:50:26;16.02;;;8.45;;
49784;SDS011;35679;38.732;-121.358;2022-12-22T09:53:19;13.63;;;7.88;;
49784;SDS011;35679;38.732;-121.358;2022-12-22T09:56:13;13.68;;;8.20;;
49784;SDS011;35679;38.732;-121.358;2022-12-22T09:59:11;13.32;;;8.90;;
49784;SDS011;35679;38.732;-121.358;2022-12-22T10:08:18;14.45;;;8.38;;
49784;SDS011;35679;38.732;-121.358;2022-12-22T10:11:17;15.02;;;8.15;;
49784;SDS011;35679;38.732;-121.358;2022-12-22T10:14:08;16.42;;;9.05;;
49784;SDS011;35679;38.732;-121.358;2022-12-22T10:20:18;14.93;;;8.55;;
49784;SDS011;35679;38.732;-121.358;2022-12-22T10:23:16;15.85;;;8.98;;
49784;SDS011;35679;38.732;-121.358;2022-12-22T10:26:12;13.82;;;9.02;;
49784;SDS011;35679;38.732;-121.358;2022-12-22T10:29:21;16.75;;;9.63;;
49784;SDS011;35679;38.732;-121.358;2022-12-22T10:32:12;15.15;;;9.02;;
49784;SDS011;35679;38.732;-121.358;2022-12-22T10:35:04;14.05;;;7.88;;
49784;SDS011;35679;38.732;-121.358;2022-12-22T10:37:54;12.95;;;8.93;;
49784;SDS011;35679;38.732;-121.358;2022-12-22T10:40:43;16.42;;;8.18;;
49784;SDS011;35679;38.732;-121.358;2022-12-22T10:43:39;15.75;;;8.82;;
49784;SDS011;35679;38.732;-121.358;2022-12-22T10:49:34;14.35;;;8.60;;
49784;SDS011;35679;38.732;-121.358;2022-12-22T10:55:35;14.68;;;7.90;;
49784;SDS011;35679;38.732;-121.358;2022-12-22T10:58:26;14.45;;;9.23;;
49784;SDS011;35679;38.732;-121.358;2022-12-22T11:01:23;13.63;;;8.57;;
49784;SDS011;35679;38.732;-121.358;2022-12-22T11:07:12;17.05;;;9.13;;
49784;SDS011;35679;38.732;-121.358;2022-12-22T11:10:01;17.08;;;9.07;;
49784;SDS011;35679;38.732;-121.358;2022-12-22T11:16:08;19.00;;;8.88;;
49784;SDS011;35679;38.732;-121.358;2022-12-22T11:25:51;16.53;;;9.60;;
49784;SDS011;35679;38.732;-121.358;2022-12-22T11:35:12;19.38;;;9.57;;
49784;SDS011;35679;38.732;-121.358;2022-12-22T11:41:44;22.08;;;10.48;;
49784;SDS011;35679;38.732;-121.358;2022-12-22T11:47:58;19.70;;;9.32;;
49784;SDS011;35679;38.732;-121.358;2022-12-22T11:54:40;20.08;;;9.20;;
49784;SDS011;35679;38.732;-121.358;2022-12-22T12:00:59;15.35;;;8.95;;
49784;SDS011;35679;38.732;-121.358;2022-12-22T12:13:16;18.10;;;10.13;;
49784;SDS011;35679;38.732;-121.358;2022-12-22T12:25:43;15.85;;;9.00;;
49784;SDS011;35679;38.732;-121.358;2022-12-22T12:32:11;16.05;;;9.07;;
49784;SDS011;35679;38.732;-121.358;2022-12-22T12:35:52;18.02;;;8.95;;
49784;SDS011;35679;38.732;-121.358;2022-12-22T12:41:43;16.40;;;9.52;;
49784;SDS011;35679;38.732;-121.358;2022-12-22T12:44:34;15.88;;;9.60;;
49784;SDS011;35679;38.732;-121.358;2022-12-22T12:50:30;15.00;;;8.75;;
49784;SDS011;35679;38.732;-121.358;2022-12-22T12:53:25;17.60;;;9.20;;
49784;SDS011;35679;38.732;-121.358;2022-12-22T12:56:15;16.80;;;8.85;;
49784;SDS011;35679;38.732;-121.358;2022-12-22T12:59:05;16.40;;;8.48;;
49784;SDS011;35679;38.732;-121.358;2022-12-22T13:01:55;16.10;;;8.65;;
49784;SDS011;35679;38.732;-121.358;2022-12-22T13:08:11;15.93;;;8.73;;
49784;SDS011;35679;38.732;-121.358;2022-12-22T13:13:53;15.32;;;9.13;;
49784;SDS011;35679;38.732;-121.358;2022-12-22T13:16:43;18.27;;;8.90;;
49784;SDS011;35679;38.732;-121.358;2022-12-22T13:19:32;16.23;;;8.90;;
49784;SDS011;35679;38.732;-121.358;2022-12-22T13:22:22;12.48;;;8.70;;
49784;SDS011;35679;38.732;-121.358;2022-12-22T13:25:15;19.52;;;9.88;;
49784;SDS011;35679;38.732;-121.358;2022-12-22T13:28:05;18.52;;;8.75;;
49784;SDS011;35679;38.732;-121.358;2022-12-22T13:31:18;14.10;;;8.40;;
49784;SDS011;35679;38.732;-121.358;2022-12-22T13:37:56;14.30;;;8.50;;
49784;SDS011;35679;38.732;-121.358;2022-12-22T13:40:45;12.15;;;7.95;;
49784;SDS011;35679;38.732;-121.358;2022-12-22T13:43:35;16.60;;;9.25;;
49784;SDS011;35679;38.732;-121.358;2022-12-22T13:46:25;13.80;;;8.50;;
49784;SDS011;35679;38.732;-121.358;2022-12-22T13:49:16;14.85;;;8.68;;
49784;SDS011;35679;38.732;-121.358;2022-12-22T13:52:27;12.43;;;8.00;;
49784;SDS011;35679;38.732;-121.358;2022-12-22T13:55:17;13.05;;;8.10;;
49784;SDS011;35679;38.732;-121.358;2022-12-22T13:58:23;15.18;;;8.80;;
49784;SDS011;35679;38.732;-121.358;2022-12-22T14:01:18;15.38;;;8.50;;
49784;SDS011;35679;38.732;-121.358;2022-12-22T14:04:11;12.38;;;7.60;;
49784;SDS011;35679;38.732;-121.358;2022-12-22T14:07:14;13.13;;;7.82;;
49784;SDS011;35679;38.732;-121.358;2022-12-22T14:10:09;16.08;;;7.93;;
49784;SDS011;35679;38.732;-121.358;2022-12-22T14:13:00;13.48;;;7.45;;
49784;SDS011;35679;38.732;-121.358;2022-12-22T14:15:59;13.70;;;8.70;;
49784;SDS011;35679;38.732;-121.358;2022-12-22T14:18:52;14.27;;;8.55;;
49784;SDS011;35679;38.732;-121.358;2022-12-22T14:21:45;14.75;;;8.52;;
49784;SDS011;35679;38.732;-121.358;2022-12-22T14:27:34;15.07;;;8.05;;
49784;SDS011;35679;38.732;-121.358;2022-12-22T14:30:45;13.93;;;7.47;;
49784;SDS011;35679;38.732;-121.358;2022-12-22T14:33:38;13.65;;;8.05;;
49784;SDS011;35679;38.732;-121.358;2022-12-22T14:36:37;12.25;;;7.95;;
49784;SDS011;35679;38.732;-121.358;2022-12-22T14:39:33;16.08;;;8.65;;
49784;SDS011;35679;38.732;-121.358;2022-12-22T14:42:22;20.30;;;9.02;;
49784;SDS011;35679;38.732;-121.358;2022-12-22T14:45:14;14.77;;;8.48;;
49784;SDS011;35679;38.732;-121.358;2022-12-22T14:48:06;15.00;;;9.13;;
49784;SDS011;35679;38.732;-121.358;2022-12-22T14:50:59;14.82;;;7.75;;
49784;SDS011;35679;38.732;-121.358;2022-12-22T14:53:53;16.65;;;8.20;;
49784;SDS011;35679;38.732;-121.358;2022-12-22T14:56:46;13.95;;;8.30;;
49784;SDS011;35679;38.732;-121.358;2022-12-22T14:59:38;16.35;;;8.43;;
49784;SDS011;35679;38.732;-121.358;2022-12-22T15:02:35;13.25;;;7.88;;
49784;SDS011;35679;38.732;-121.358;2022-12-22T15:05:36;13.90;;;8.60;;
49784;SDS011;35679;38.732;-121.358;2022-12-22T15:08:36;13.55;;;7.97;;
49784;SDS011;35679;38.732;-121.358;2022-12-22T15:11:34;15.30;;;8.85;;
49784;SDS011;35679;38.732;-121.358;2022-12-22T15:14:27;13.53;;;8.23;;
49784;SDS011;35679;38.732;-121.358;2022-12-22T15:17:25;15.05;;;7.95;;
49784;SDS011;35679;38.732;-121.358;2022-12-22T15:20:15;13.57;;;7.65;;
49784;SDS011;35679;38.732;-121.358;2022-12-22T15:23:12;15.05;;;8.32;;
49784;SDS011;35679;38.732;-121.358;2022-12-22T15:26:04;14.70;;;8.07;;
49784;SDS011;35679;38.732;-121.358;2022-12-22T15:28:53;14.98;;;9.00;;
49784;SDS011;35679;38.732;-121.358;2022-12-22T15:31:43;13.70;;;8.60;;
49784;SDS011;35679;38.732;-121.358;2022-12-22T15:34:33;11.10;;;7.38;;
49784;SDS011;35679;38.732;-121.358;2022-12-22T15:37:22;11.13;;;7.15;;
49784;SDS011;35679;38.732;-121.358;2022-12-22T15:40:16;15.32;;;8.20;;
49784;SDS011;35679;38.732;-121.358;2022-12-22T15:43:07;12.32;;;8.05;;
49784;SDS011;35679;38.732;-121.358;2022-12-22T15:46:18;13.90;;;8.02;;
49784;SDS011;35679;38.732;-121.358;2022-12-22T15:49:13;12.50;;;7.72;;
49784;SDS011;35679;38.732;-121.358;2022-12-22T15:52:07;11.55;;;7.53;;
49784;SDS011;35679;38.732;-121.358;2022-12-22T15:55:00;12.82;;;8.10;;
49784;SDS011;35679;38.732;-121.358;2022-12-22T15:57:50;15.38;;;8.57;;
49784;SDS011;35679;38.732;-121.358;2022-12-22T16:03:32;13.15;;;7.43;;
49784;SDS011;35679;38.732;-121.358;2022-12-22T16:06:21;11.32;;;7.03;;
49784;SDS011;35679;38.732;-121.358;2022-12-22T16:09:24;14.15;;;8.18;;
49784;SDS011;35679;38.732;-121.358;2022-12-22T16:12:18;14.52;;;7.68;;
49784;SDS011;35679;38.732;-121.358;2022-12-22T16:15:09;14.13;;;7.68;;
49784;SDS011;35679;38.732;-121.358;2022-12-22T16:18:01;13.18;;;7.68;;
49784;SDS011;35679;38.732;-121.358;2022-12-22T16:20:51;13.98;;;8.20;;
49784;SDS011;35679;38.732;-121.358;2022-12-22T16:23:40;12.43;;;7.68;;
49784;SDS011;35679;38.732;-121.358;2022-12-22T16:26:31;14.75;;;7.93;;
49784;SDS011;35679;38.732;-121.358;2022-12-22T16:29:24;14.68;;;8.20;;
49784;SDS011;35679;38.732;-121.358;2022-12-22T16:32:15;12.88;;;8.10;;
49784;SDS011;35679;38.732;-121.358;2022-12-22T16:38:02;12.32;;;7.22;;
49784;SDS011;35679;38.732;-121.358;2022-12-22T16:40:51;14.82;;;7.78;;
49784;SDS011;35679;38.732;-121.358;2022-12-22T16:43:41;16.25;;;8.82;;
49784;SDS011;35679;38.732;-121.358;2022-12-22T16:46:36;14.68;;;8.88;;
49784;SDS011;35679;38.732;-121.358;2022-12-22T16:49:26;15.05;;;8.65;;
49784;SDS011;35679;38.732;-121.358;2022-12-22T16:52:35;12.02;;;7.30;;
49784;SDS011;35679;38.732;-121.358;2022-12-22T16:55:26;13.30;;;7.05;;
49784;SDS011;35679;38.732;-121.358;2022-12-22T16:58:16;12.75;;;7.90;;
49784;SDS011;35679;38.732;-121.358;2022-12-22T17:01:05;11.70;;;7.82;;
49784;SDS011;35679;38.732;-121.358;2022-12-22T17:03:54;14.90;;;7.50;;
49784;SDS011;35679;38.732;-121.358;2022-12-22T17:06:46;15.20;;;7.78;;
49784;SDS011;35679;38.732;-121.358;2022-12-22T17:09:55;12.05;;;7.28;;
49784;SDS011;35679;38.732;-121.358;2022-12-22T17:12:52;12.65;;;7.55;;
49784;SDS011;35679;38.732;-121.358;2022-12-22T17:15:44;10.27;;;7.22;;
49784;SDS011;35679;38.732;-121.358;2022-12-22T17:18:33;14.38;;;7.45;;
49784;SDS011;35679;38.732;-121.358;2022-12-22T17:21:23;11.90;;;7.25;;
49784;SDS011;35679;38.732;-121.358;2022-12-22T17:24:16;13.00;;;7.55;;
49784;SDS011;35679;38.732;-121.358;2022-12-22T17:27:14;11.88;;;8.02;;
49784;SDS011;35679;38.732;-121.358;2022-12-22T17:30:05;11.38;;;7.43;;
49784;SDS011;35679;38.732;-121.358;2022-12-22T17:33:04;10.80;;;7.22;;
49784;SDS011;35679;38.732;-121.358;2022-12-22T17:36:00;13.63;;;8.15;;
49784;SDS011;35679;38.732;-121.358;2022-12-22T17:38:49;13.00;;;7.32;;
49784;SDS011;35679;38.732;-121.358;2022-12-22T17:41:39;12.70;;;7.95;;
49784;SDS011;35679;38.732;-121.358;2022-12-22T17:44:28;16.00;;;7.53;;
49784;SDS011;35679;38.732;-121.358;2022-12-22T17:47:18;13.70;;;7.88;;
49784;SDS011;35679;38.732;-121.358;2022-12-22T17:50:20;12.23;;;7.30;;
49784;SDS011;35679;38.732;-121.358;2022-12-22T17:53:13;11.68;;;7.78;;
49784;SDS011;35679;38.732;-121.358;2022-12-22T17:56:08;11.25;;;6.57;;
49784;SDS011;35679;38.732;-121.358;2022-12-22T17:59:10;12.25;;;6.97;;
49784;SDS011;35679;38.732;-121.358;2022-12-22T18:01:59;11.48;;;7.03;;
49784;SDS011;35679;38.732;-121.358;2022-12-22T18:04:48;10.77;;;6.78;;
49784;SDS011;35679;38.732;-121.358;2022-12-22T18:07:38;13.90;;;6.93;;
49784;SDS011;35679;38.732;-121.358;2022-12-22T18:10:30;14.70;;;7.63;;
49784;SDS011;35679;38.732;-121.358;2022-12-22T18:13:22;12.13;;;7.35;;
49784;SDS011;35679;38.732;-121.358;2022-12-22T18:16:15;14.48;;;7.47;;
49784;SDS011;35679;38.732;-121.358;2022-12-22T18:19:06;13.48;;;7.85;;
49784;SDS011;35679;38.732;-121.358;2022-12-22T18:21:55;13.20;;;7.05;;
49784;SDS011;35679;38.732;-121.358;2022-12-22T18:24:45;12.75;;;7.97;;
49784;SDS011;35679;38.732;-121.358;2022-12-22T18:27:35;11.18;;;7.30;;
49784;SDS011;35679;38.732;-121.358;2022-12-22T18:30:26;13.10;;;7.75;;
49784;SDS011;35679;38.732;-121.358;2022-12-22T18:33:17;15.15;;;8.50;;